createdAt,value
2017-10-06T00:01:02.399Z,4.40
2017-10-06T00:03:31.436Z,5.23
2017-10-06T00:06:00.480Z,5.30
2017-10-06T00:08:29.519Z,5.60
2017-10-06T00:10:58.584Z,5.83
2017-10-06T00:13:27.657Z,5.17
2017-10-06T00:15:56.707Z,5.40
2017-10-06T00:18:25.735Z,5.23
2017-10-06T00:20:54.816Z,4.60
2017-10-06T00:23:23.884Z,4.70
2017-10-06T00:25:52.922Z,5.30
2017-10-06T00:28:22.059Z,5.20
2017-10-06T00:30:51.099Z,5.30
2017-10-06T00:33:20.162Z,5.27
2017-10-06T00:35:49.238Z,4.93
2017-10-06T00:38:18.278Z,4.77
2017-10-06T00:40:47.328Z,5.10
2017-10-06T00:43:16.383Z,4.97
2017-10-06T00:45:45.453Z,4.83
2017-10-06T00:48:14.519Z,5.67
2017-10-06T00:50:43.566Z,4.97
2017-10-06T00:53:12.628Z,5.20
2017-10-06T00:55:41.722Z,5.97
2017-10-06T00:58:10.747Z,6.50
2017-10-06T01:00:39.785Z,6.10
2017-10-06T01:03:08.839Z,5.33
2017-10-06T01:05:38.003Z,6.77
2017-10-06T01:08:07.240Z,6.23
2017-10-06T01:10:36.274Z,6.37
2017-10-06T01:13:05.319Z,6.80
2017-10-06T01:15:34.378Z,6.70
2017-10-06T01:18:03.403Z,6.90
2017-10-06T01:20:32.491Z,7.40
2017-10-06T01:23:01.524Z,7.00
2017-10-06T01:25:30.562Z,7.30
2017-10-06T01:27:59.610Z,6.90
2017-10-06T01:30:28.677Z,7.20
2017-10-06T01:32:57.699Z,8.30
2017-10-06T01:35:26.743Z,7.70
2017-10-06T01:37:55.833Z,6.73
2017-10-06T01:40:24.859Z,6.40
2017-10-06T01:42:53.908Z,7.43
2017-10-06T01:45:22.966Z,7.20
2017-10-06T01:47:52.019Z,9.20
2017-10-06T01:50:21.203Z,7.70
2017-10-06T01:52:50.267Z,8.03
2017-10-06T01:55:19.318Z,8.13
2017-10-06T01:57:48.347Z,7.03
2017-10-06T02:00:17.424Z,7.40
2017-10-06T02:02:47.341Z,7.93
2017-10-06T02:05:16.387Z,7.97
2017-10-06T02:07:45.435Z,7.90
2017-10-06T02:10:14.479Z,7.73
2017-10-06T02:12:43.539Z,7.37
2017-10-06T02:15:12.616Z,7.13
2017-10-06T02:17:41.655Z,6.50
2017-10-06T02:20:10.695Z,6.40
2017-10-06T02:22:39.728Z,6.90
2017-10-06T02:25:08.787Z,7.63
2017-10-06T02:27:37.827Z,6.33
2017-10-06T02:30:06.855Z,6.10
2017-10-06T02:32:35.915Z,6.60
2017-10-06T02:35:04.968Z,5.40
2017-10-06T02:37:34.015Z,7.20
2017-10-06T02:40:03.083Z,5.53
2017-10-06T02:42:32.121Z,5.20
2017-10-06T02:45:01.183Z,4.90
2017-10-06T02:47:30.223Z,5.63
2017-10-06T02:49:59.271Z,5.97
2017-10-06T02:52:28.331Z,5.80
2017-10-06T02:54:59.533Z,6.30
2017-10-06T02:57:28.583Z,5.97
2017-10-06T02:59:57.641Z,6.53
2017-10-06T03:02:26.721Z,6.00
2017-10-06T03:04:55.771Z,6.27
2017-10-06T03:07:24.819Z,7.00
2017-10-06T03:09:53.882Z,7.20
2017-10-06T03:12:22.940Z,6.50
2017-10-06T03:14:51.981Z,6.80
2017-10-06T03:17:21.040Z,6.87
2017-10-06T03:19:50.077Z,6.23
2017-10-06T03:22:19.155Z,6.50
2017-10-06T03:24:48.198Z,6.70
2017-10-06T03:27:17.248Z,6.80
2017-10-06T03:29:46.303Z,6.80
2017-10-06T03:32:15.339Z,5.90
2017-10-06T03:34:44.395Z,5.83
2017-10-06T03:37:14.479Z,7.10
2017-10-06T03:39:43.525Z,6.47
2017-10-06T03:42:14.494Z,6.10
2017-10-06T03:44:43.544Z,6.20
2017-10-06T03:47:12.624Z,6.73
2017-10-06T03:49:41.673Z,6.03
2017-10-06T03:52:10.732Z,5.97
2017-10-06T03:54:39.774Z,6.17
2017-10-06T03:57:08.834Z,6.47
2017-10-06T03:59:37.899Z,6.77
2017-10-06T04:02:10.979Z,7.00
2017-10-06T04:04:40.031Z,5.73
2017-10-06T04:07:09.075Z,7.83
2017-10-06T04:09:38.132Z,6.53
2017-10-06T04:12:07.179Z,7.57
2017-10-06T04:14:36.227Z,7.07
2017-10-06T04:17:05.278Z,7.63
2017-10-06T04:19:34.331Z,7.53
2017-10-06T04:22:03.541Z,7.80
2017-10-06T04:24:32.687Z,8.10
2017-10-06T04:27:01.769Z,7.20
2017-10-06T04:29:30.798Z,8.17
2017-10-06T04:31:59.865Z,7.87
2017-10-06T04:34:29.347Z,7.80
2017-10-06T04:36:58.585Z,6.63
2017-10-06T04:39:27.727Z,6.70
2017-10-06T04:41:56.763Z,7.10
2017-10-06T04:44:25.859Z,7.00
2017-10-06T04:46:54.903Z,6.17
2017-10-06T04:49:24.335Z,7.10
2017-10-06T04:51:53.360Z,6.37
2017-10-06T04:54:22.507Z,6.70
2017-10-06T04:56:51.555Z,8.00
2017-10-06T04:59:21.502Z,7.20
2017-10-06T05:01:50.559Z,7.63
2017-10-06T05:04:19.760Z,7.67
2017-10-06T05:06:48.924Z,8.37
2017-10-06T05:09:17.975Z,8.87
2017-10-06T05:11:47.043Z,7.70
2017-10-06T05:14:16.120Z,9.03
2017-10-06T05:16:45.251Z,8.70
2017-10-06T05:19:14.345Z,9.83
2017-10-06T05:21:43.419Z,7.60
2017-10-06T05:24:14.762Z,7.83
2017-10-06T05:26:45.597Z,7.33
2017-10-06T05:29:14.733Z,7.70
2017-10-06T05:31:43.814Z,8.80
2017-10-06T05:34:12.886Z,10.03
2017-10-06T05:36:41.945Z,8.23
2017-10-06T05:39:11.019Z,8.30
2017-10-06T05:41:40.119Z,8.33
2017-10-06T05:44:09.232Z,8.00
2017-10-06T05:46:38.291Z,7.70
2017-10-06T05:49:07.344Z,8.57
2017-10-06T05:51:36.378Z,7.70
2017-10-06T05:54:05.458Z,7.20
2017-10-06T05:56:34.507Z,6.87
2017-10-06T05:59:03.559Z,7.57
2017-10-06T06:01:32.641Z,7.50
2017-10-06T06:04:03.180Z,8.90
2017-10-06T06:06:32.232Z,9.03
2017-10-06T06:09:01.315Z,7.87
2017-10-06T06:11:30.362Z,7.83
2017-10-06T06:13:59.406Z,8.13
2017-10-06T06:16:28.462Z,8.20
2017-10-06T06:18:57.509Z,8.10
2017-10-06T06:21:26.557Z,7.00
2017-10-06T06:23:55.626Z,8.20
2017-10-06T06:26:25.450Z,8.13
2017-10-06T06:28:54.523Z,7.23
2017-10-06T06:31:23.692Z,7.17
2017-10-06T06:33:52.763Z,7.77
2017-10-06T06:36:21.803Z,6.83
2017-10-06T06:38:50.855Z,7.90
2017-10-06T06:41:19.884Z,7.30
2017-10-06T06:43:49.032Z,7.70
2017-10-06T06:46:18.092Z,7.17
2017-10-06T06:48:47.142Z,8.20
2017-10-06T06:51:16.217Z,7.87
2017-10-06T06:53:48.669Z,7.07
2017-10-06T06:56:19.245Z,6.97
2017-10-06T06:58:48.319Z,6.83
2017-10-06T07:01:17.347Z,7.10
2017-10-06T07:03:46.386Z,6.23
2017-10-06T07:06:15.525Z,7.50
2017-10-06T07:08:44.555Z,5.80
2017-10-06T07:11:13.639Z,5.27
2017-10-06T07:13:42.674Z,6.17
2017-10-06T07:16:11.745Z,7.97
2017-10-06T07:18:40.831Z,5.47
2017-10-06T07:21:09.876Z,5.50
2017-10-06T07:23:40.098Z,5.13
2017-10-06T07:26:09.190Z,5.10
2017-10-06T07:28:38.288Z,4.53
2017-10-06T07:31:07.355Z,4.83
2017-10-06T07:33:36.387Z,4.57
2017-10-06T07:36:05.427Z,4.73
2017-10-06T07:38:34.477Z,4.63
2017-10-06T07:41:03.521Z,4.40
2017-10-06T07:43:32.561Z,4.67
2017-10-06T07:46:01.640Z,4.67
2017-10-06T07:48:30.690Z,3.60
2017-10-06T07:50:59.735Z,3.40
2017-10-06T07:53:28.817Z,3.93
2017-10-06T07:55:57.848Z,3.40
2017-10-06T07:58:26.880Z,3.07
2017-10-06T08:00:55.938Z,4.23
2017-10-06T08:03:25.151Z,2.90
2017-10-06T08:05:54.223Z,3.20
2017-10-06T08:08:23.278Z,2.93
2017-10-06T08:10:52.305Z,2.97
2017-10-06T08:13:21.351Z,3.30
2017-10-06T08:15:50.390Z,3.10
2017-10-06T08:18:19.453Z,2.67
2017-10-06T08:20:51.355Z,3.00
2017-10-06T08:23:20.747Z,2.50
2017-10-06T08:25:49.787Z,2.30
2017-10-06T08:28:18.833Z,1.40
2017-10-06T08:30:47.905Z,1.57
2017-10-06T08:33:18.922Z,1.67
2017-10-06T08:35:47.986Z,1.43
2017-10-06T08:38:17.050Z,1.30
2017-10-06T08:40:46.095Z,1.30
2017-10-06T08:43:15.144Z,1.30
2017-10-06T08:45:44.196Z,1.33
2017-10-06T08:48:13.252Z,1.63
2017-10-06T08:50:42.314Z,1.23
2017-10-06T08:53:11.368Z,0.97
2017-10-06T08:55:40.413Z,1.20
2017-10-06T08:58:09.467Z,1.50
2017-10-06T09:00:38.558Z,0.93
2017-10-06T09:03:07.603Z,0.90
2017-10-06T09:05:36.727Z,1.03
2017-10-06T09:08:05.803Z,0.90
2017-10-06T09:10:34.917Z,1.77
2017-10-06T09:13:03.965Z,0.93
2017-10-06T09:15:33.045Z,1.47
2017-10-06T09:18:02.112Z,2.23
2017-10-06T09:20:31.181Z,1.23
2017-10-06T09:23:00.236Z,0.80
2017-10-06T09:25:29.284Z,1.40
2017-10-06T09:27:58.348Z,0.90
2017-10-06T09:30:27.417Z,1.07
2017-10-06T09:32:56.451Z,0.60
2017-10-06T09:35:25.540Z,1.20
2017-10-06T09:37:54.599Z,0.80
2017-10-06T09:40:23.643Z,1.23
2017-10-06T09:42:52.699Z,1.20
2017-10-06T09:45:21.787Z,1.07
2017-10-06T09:47:50.856Z,1.10
2017-10-06T09:50:19.986Z,1.43
2017-10-06T09:52:49.041Z,1.20
2017-10-06T09:55:18.067Z,1.10
2017-10-06T09:57:47.141Z,1.03
2017-10-06T10:00:16.187Z,1.73
2017-10-06T10:02:45.251Z,0.90
2017-10-06T10:05:14.483Z,1.20
2017-10-06T10:07:43.540Z,1.30
2017-10-06T10:10:12.583Z,1.70
2017-10-06T10:12:41.639Z,1.13
2017-10-06T10:15:10.681Z,1.10
2017-10-06T10:17:39.739Z,1.27
2017-10-06T10:20:08.788Z,1.17
2017-10-06T10:22:37.855Z,1.40
2017-10-06T10:25:07.090Z,1.20
2017-10-06T10:27:36.150Z,0.70
2017-10-06T10:30:05.191Z,1.27
2017-10-06T10:32:34.481Z,0.83
2017-10-06T10:35:03.535Z,1.10
2017-10-06T10:37:32.587Z,1.00
2017-10-06T10:40:01.656Z,0.80
2017-10-06T10:42:30.720Z,1.00
2017-10-06T10:44:59.814Z,1.10
2017-10-06T10:47:28.871Z,1.00
2017-10-06T10:49:57.947Z,0.90
2017-10-06T10:52:27.008Z,1.47
2017-10-06T10:54:56.069Z,1.00
2017-10-06T10:57:25.191Z,0.83
2017-10-06T10:59:54.247Z,0.93
2017-10-06T11:02:23.316Z,1.30
2017-10-06T11:04:52.372Z,1.10
2017-10-06T11:07:21.464Z,1.50
2017-10-06T11:09:50.893Z,1.20
2017-10-06T11:12:19.955Z,1.50
2017-10-06T11:14:49.019Z,1.27
2017-10-06T11:17:18.136Z,1.60
2017-10-06T11:19:47.285Z,1.57
2017-10-06T11:22:16.369Z,1.60
2017-10-06T11:24:45.436Z,1.33
2017-10-06T11:27:14.487Z,1.60
2017-10-06T11:29:43.539Z,1.83
2017-10-06T11:32:13.004Z,1.13
2017-10-06T11:34:42.112Z,1.20
2017-10-06T11:37:11.234Z,1.20
2017-10-06T11:39:40.283Z,1.90
2017-10-06T11:42:09.423Z,1.50
2017-10-06T11:44:38.645Z,1.90
2017-10-06T11:47:08.172Z,1.90
2017-10-06T11:49:37.246Z,1.80
2017-10-06T11:52:06.283Z,2.40
2017-10-06T11:54:35.389Z,2.27
2017-10-06T11:57:04.500Z,1.70
2017-10-06T11:59:33.554Z,1.50
2017-10-06T12:02:02.618Z,1.50
2017-10-06T12:04:31.699Z,1.53
2017-10-06T12:07:00.790Z,1.70
2017-10-06T12:09:29.844Z,1.50
2017-10-06T12:12:00.417Z,1.50
2017-10-06T12:14:30.446Z,1.47
2017-10-06T12:16:59.488Z,1.20
2017-10-06T12:19:28.578Z,1.40
2017-10-06T12:21:57.636Z,1.33
2017-10-06T12:24:26.706Z,1.40
2017-10-06T12:26:55.829Z,1.47
2017-10-06T12:29:24.860Z,1.47
2017-10-06T12:31:53.904Z,1.20
2017-10-06T12:34:22.992Z,1.23
2017-10-06T12:36:52.056Z,1.20
2017-10-06T12:39:21.167Z,1.33
2017-10-06T12:41:50.240Z,1.10
2017-10-06T12:44:19.313Z,1.13
2017-10-06T12:46:48.353Z,1.30
2017-10-06T12:49:17.417Z,1.27
2017-10-06T12:51:46.489Z,1.00
2017-10-06T12:54:15.619Z,0.50
2017-10-06T12:56:44.626Z,0.60
2017-10-06T12:59:15.073Z,0.80
2017-10-06T13:01:45.647Z,0.90
2017-10-06T13:04:14.653Z,0.80
2017-10-06T13:06:43.691Z,1.10
2017-10-06T13:09:12.738Z,0.70
2017-10-06T13:11:41.807Z,1.17
2017-10-06T13:14:10.863Z,0.93
2017-10-06T13:16:39.903Z,1.10
2017-10-06T13:19:08.935Z,1.00
2017-10-06T13:21:37.980Z,1.27
2017-10-06T13:24:07.022Z,1.50
2017-10-06T13:26:37.088Z,1.30
2017-10-06T13:29:06.138Z,1.90
2017-10-06T13:31:35.212Z,2.03
2017-10-06T13:34:04.272Z,1.70
2017-10-06T13:36:33.393Z,1.80
2017-10-06T13:39:02.443Z,2.00
2017-10-06T13:41:31.497Z,1.40
2017-10-06T13:44:00.554Z,1.63
2017-10-06T13:46:30.810Z,1.13
2017-10-06T13:48:59.854Z,1.53
2017-10-06T13:51:29.835Z,1.40
2017-10-06T13:53:58.905Z,1.73
2017-10-06T13:56:27.949Z,1.77
2017-10-06T13:58:57.012Z,1.40
2017-10-06T14:01:26.086Z,1.20
2017-10-06T14:03:55.222Z,1.40
2017-10-06T14:06:24.243Z,1.67
2017-10-06T14:08:53.286Z,1.80
2017-10-06T14:11:22.376Z,1.63
2017-10-06T14:13:51.423Z,1.07
2017-10-06T14:16:20.722Z,1.57
2017-10-06T14:18:49.764Z,1.07
2017-10-06T14:21:18.826Z,1.13
2017-10-06T14:23:47.931Z,1.40
2017-10-06T14:26:16.984Z,1.37
2017-10-06T14:28:46.023Z,1.40
2017-10-06T14:31:15.056Z,1.70
2017-10-06T14:33:44.132Z,1.50
2017-10-06T14:36:13.156Z,3.50
2017-10-06T14:38:42.215Z,1.70
2017-10-06T14:41:11.243Z,1.20
2017-10-06T14:43:40.432Z,1.30
2017-10-06T14:46:09.472Z,1.10
2017-10-06T14:48:38.514Z,0.90
2017-10-06T14:51:07.601Z,1.00
2017-10-06T14:53:36.723Z,0.90
2017-10-06T14:56:05.760Z,1.30
2017-10-06T14:58:34.848Z,1.37
2017-10-06T15:01:03.912Z,1.30
2017-10-06T15:03:32.976Z,1.50
2017-10-06T15:06:02.024Z,1.47
2017-10-06T15:08:31.123Z,1.80
2017-10-06T15:11:00.155Z,1.40
2017-10-06T15:13:32.890Z,1.70
2017-10-06T15:16:01.953Z,1.90
2017-10-06T15:18:31.199Z,2.03
2017-10-06T15:21:00.234Z,1.73
2017-10-06T15:23:29.284Z,2.13
2017-10-06T15:25:58.344Z,2.30
2017-10-06T15:28:27.472Z,2.80
2017-10-06T15:30:56.521Z,1.93
2017-10-06T15:33:25.567Z,2.13
2017-10-06T15:35:55.421Z,2.07
2017-10-06T15:38:24.518Z,1.97
2017-10-06T15:40:53.763Z,2.00
2017-10-06T15:43:22.809Z,1.80
2017-10-06T15:45:51.873Z,2.10
2017-10-06T15:48:21.000Z,2.00
2017-10-06T15:50:50.524Z,2.20
2017-10-06T15:53:19.575Z,1.97
2017-10-06T15:55:48.614Z,1.83
2017-10-06T15:58:17.678Z,1.90
2017-10-06T16:00:46.747Z,1.80
2017-10-06T16:03:15.800Z,2.43
2017-10-06T16:05:44.922Z,2.07
2017-10-06T16:08:14.029Z,2.17
2017-10-06T16:10:43.051Z,2.10
2017-10-06T16:13:12.094Z,2.80
2017-10-06T16:15:41.138Z,2.20
2017-10-06T16:18:10.244Z,2.30
2017-10-06T16:20:39.258Z,2.27
2017-10-06T16:23:08.297Z,2.67
2017-10-06T16:25:37.362Z,2.60
2017-10-06T16:28:06.438Z,2.47
2017-10-06T16:30:35.556Z,2.53
2017-10-06T16:33:04.629Z,2.83
2017-10-06T16:35:33.720Z,3.23
2017-10-06T16:38:04.503Z,3.33
2017-10-06T16:40:33.599Z,3.80
2017-10-06T16:43:02.886Z,2.93
2017-10-06T16:45:31.945Z,5.50
2017-10-06T16:48:02.206Z,3.60
2017-10-06T16:50:31.451Z,6.97
2017-10-06T16:53:00.610Z,2.97
2017-10-06T16:55:29.687Z,3.20
2017-10-06T16:57:58.991Z,3.30
2017-10-06T17:00:28.026Z,5.10
2017-10-06T17:02:57.121Z,4.03
2017-10-06T17:05:26.163Z,4.07
2017-10-06T17:07:55.238Z,3.27
2017-10-06T17:10:24.271Z,3.23
2017-10-06T17:12:53.319Z,2.70
2017-10-06T17:15:22.381Z,3.80
2017-10-06T17:17:51.417Z,5.93
2017-10-06T17:20:20.487Z,4.40
2017-10-06T17:22:49.511Z,2.60
2017-10-06T17:25:18.595Z,3.60
2017-10-06T17:27:47.628Z,3.47
2017-10-06T17:30:16.680Z,2.00
2017-10-06T17:32:45.761Z,2.27
2017-10-06T17:35:14.802Z,2.63
2017-10-06T17:37:43.941Z,6.40
2017-10-06T17:40:12.972Z,4.30
2017-10-06T17:42:42.016Z,2.27
2017-10-06T17:45:11.066Z,2.87
2017-10-06T17:47:40.149Z,2.67
2017-10-06T17:50:09.184Z,3.00
2017-10-06T17:52:38.280Z,2.40
2017-10-06T17:55:07.363Z,3.10
2017-10-06T17:57:36.852Z,2.90
2017-10-06T18:00:06.235Z,3.30
2017-10-06T18:02:35.278Z,3.07
2017-10-06T18:05:04.362Z,3.00
2017-10-06T18:07:33.467Z,3.40
2017-10-06T18:10:02.654Z,3.30
2017-10-06T18:12:31.755Z,3.70
2017-10-06T18:15:01.063Z,3.00
2017-10-06T18:17:30.120Z,3.80
2017-10-06T18:19:59.171Z,4.50
2017-10-06T18:22:28.210Z,5.03
2017-10-06T18:24:57.279Z,5.90
2017-10-06T18:27:26.347Z,4.50
2017-10-06T18:29:55.508Z,5.70
2017-10-06T18:32:25.013Z,5.17
2017-10-06T18:34:54.466Z,5.20
2017-10-06T18:37:23.929Z,6.67
2017-10-06T18:39:52.997Z,5.80
2017-10-06T18:42:22.273Z,6.70
2017-10-06T18:44:51.396Z,6.10
2017-10-06T18:47:20.474Z,6.27
2017-10-06T18:49:49.609Z,6.40
2017-10-06T18:52:18.673Z,6.63
2017-10-06T18:54:47.980Z,6.40
2017-10-06T18:57:17.088Z,7.40
2017-10-06T18:59:46.145Z,8.40
2017-10-06T19:02:19.556Z,8.00
2017-10-06T19:04:49.524Z,7.80
2017-10-06T19:07:19.060Z,6.60
2017-10-06T19:09:48.128Z,8.33
2017-10-06T19:12:17.211Z,8.00
2017-10-06T19:14:46.278Z,7.50
2017-10-06T19:17:15.394Z,8.03
2017-10-06T19:19:45.336Z,7.43
2017-10-06T19:22:14.396Z,8.10
2017-10-06T19:24:43.433Z,7.40
2017-10-06T19:27:12.495Z,7.60
2017-10-06T19:29:41.555Z,7.57
2017-10-06T19:32:11.135Z,7.03
2017-10-06T19:34:40.257Z,7.00
2017-10-06T19:37:10.896Z,7.80
2017-10-06T19:39:44.683Z,7.23
2017-10-06T19:42:13.880Z,8.27
2017-10-06T19:44:43.984Z,8.20
2017-10-06T19:47:13.896Z,10.30
2017-10-06T19:49:43.018Z,7.23
2017-10-06T19:52:12.047Z,7.97
2017-10-06T19:54:41.125Z,8.03
2017-10-06T19:57:10.214Z,6.50
2017-10-06T19:59:40.259Z,8.30
2017-10-06T20:02:09.581Z,6.57
2017-10-06T20:04:38.631Z,6.93
2017-10-06T20:07:07.743Z,6.53
2017-10-06T20:09:37.779Z,6.90
2017-10-06T20:12:06.889Z,7.87
2017-10-06T20:14:36.066Z,7.30
2017-10-06T20:17:05.159Z,8.00
2017-10-06T20:19:34.330Z,7.43
2017-10-06T20:22:04.320Z,7.97
2017-10-06T20:24:33.383Z,7.33
2017-10-06T20:27:02.466Z,7.93
2017-10-06T20:29:32.487Z,7.23
2017-10-06T20:32:02.045Z,7.87
2017-10-06T20:34:31.399Z,8.33
2017-10-06T20:37:00.483Z,7.67
2017-10-06T20:39:29.568Z,6.90
2017-10-06T20:41:58.945Z,7.10
2017-10-06T20:44:28.028Z,7.20
2017-10-06T20:46:57.065Z,6.73
2017-10-06T20:49:27.191Z,7.30
2017-10-06T20:51:56.425Z,6.87
2017-10-06T20:54:25.494Z,7.80
2017-10-06T20:56:54.553Z,7.40
2017-10-06T20:59:23.657Z,7.60
2017-10-06T21:01:52.733Z,8.00
2017-10-06T21:04:21.815Z,9.10
2017-10-06T21:06:50.893Z,8.27
2017-10-06T21:09:19.931Z,7.87
2017-10-06T21:11:49.000Z,7.03
2017-10-06T21:14:18.049Z,6.83
2017-10-06T21:16:47.084Z,8.00
2017-10-06T21:19:16.198Z,7.17
2017-10-06T21:21:45.256Z,8.30
2017-10-06T21:24:14.321Z,7.60
2017-10-06T21:26:43.378Z,8.30
2017-10-06T21:29:13.327Z,7.77
2017-10-06T21:31:42.383Z,8.00
2017-10-06T21:34:11.465Z,8.20
2017-10-06T21:36:40.516Z,9.70
2017-10-06T21:39:09.580Z,8.20
2017-10-06T21:41:39.591Z,7.60
2017-10-06T21:44:09.593Z,8.83
2017-10-06T21:46:38.675Z,7.73
2017-10-06T21:49:07.702Z,9.17
2017-10-06T21:51:36.767Z,9.10
2017-10-06T21:54:05.807Z,8.20
2017-10-06T21:56:35.032Z,8.80
2017-10-06T21:59:04.075Z,8.77
2017-10-06T22:01:34.143Z,9.07
2017-10-06T22:04:03.207Z,9.47
2017-10-06T22:06:32.265Z,10.47
2017-10-06T22:09:01.396Z,9.47
2017-10-06T22:11:30.435Z,9.80
2017-10-06T22:13:59.504Z,10.03
2017-10-06T22:16:28.556Z,9.90
2017-10-06T22:18:57.607Z,9.63
2017-10-06T22:21:26.699Z,8.90
2017-10-06T22:23:55.795Z,9.73
2017-10-06T22:26:24.928Z,9.90
2017-10-06T22:28:53.967Z,9.13
2017-10-06T22:31:23.029Z,10.23
2017-10-06T22:33:52.080Z,10.27
2017-10-06T22:36:21.139Z,10.13
2017-10-06T22:38:50.163Z,8.37
2017-10-06T22:41:19.266Z,10.20
2017-10-06T22:43:48.326Z,10.13
2017-10-06T22:46:17.364Z,9.00
2017-10-06T22:48:46.459Z,8.90
2017-10-06T22:51:15.506Z,9.80
2017-10-06T22:53:44.589Z,10.47
2017-10-06T22:56:13.624Z,8.87
2017-10-06T22:58:43.477Z,9.23
2017-10-06T23:01:12.674Z,8.77
2017-10-06T23:03:42.684Z,9.37
2017-10-06T23:06:11.728Z,9.93
2017-10-06T23:08:40.763Z,9.37
2017-10-06T23:11:10.077Z,9.40
2017-10-06T23:13:39.829Z,8.63
2017-10-06T23:16:08.891Z,9.40
2017-10-06T23:18:37.929Z,9.00
2017-10-06T23:21:06.993Z,9.70
2017-10-06T23:23:36.107Z,8.80
2017-10-06T23:26:05.150Z,8.17
2017-10-06T23:28:34.182Z,8.10
2017-10-06T23:31:03.341Z,8.13
2017-10-06T23:33:32.346Z,8.10
2017-10-06T23:36:01.426Z,8.37
2017-10-06T23:38:30.458Z,7.47
2017-10-06T23:40:59.535Z,7.50
2017-10-06T23:43:28.645Z,8.30
2017-10-06T23:45:57.663Z,8.60
2017-10-06T23:48:26.697Z,7.33
2017-10-06T23:50:55.776Z,8.23
2017-10-06T23:53:24.794Z,7.73
2017-10-06T23:55:53.838Z,7.33
2017-10-06T23:58:23.052Z,7.67
